x

South Santa Rosa Is. Ca (46069) Wave Buoy

8:50 - Fri 6th Mar 2015 All times are PST. -8 hours from GMT.

  • Sig Wave height 3.9ft
  • Peak Period 15s
  • Average Period 7s
  • Wind
    9mph
  • Sea Temp 59°f
  • Aire Temp 59°f
  • Sea Pressure 1020.8mb
  • South Santa Rosa Is. Ca
  • South Santa Rosa Is. Ca

More Historic Weather Station data

Upgrade to MSW Pro to gain access to the past 30 days of data for over 8000 Wavebouys and Weather Stations around the globe.

Join Pro

Comparision Forecast

View Surf forecast
   
vie 03/06 8:50 4ft 15s 7s 9
mph
1020.8mb 59f 59f
7:50 4.5ft 15s 8s 9 11 mph 1020.7mb 59f 59f
6:50 3.5ft 12s 7s 11 13 mph 1020.4mb 59f 59f
5:50 4ft 15s 8s 11 13 mph 1020.4mb 59f 59f
4:50 4ft 15s 8s 11 13 mph 1020.4mb 59f 59f
3:50 4.5ft 14s 8s 13 16 mph 1020.2mb 59f 59f
2:50 4.5ft 15s 7s 9 13 mph 1020.5mb 60f 59f
1:50 4ft 15s 7s 11 16 mph 1021mb 60f 60f
12:50 4.5ft 15s 8s 13 16 mph 1021.3mb 60f 60f
jue 03/05 11:50 4ft 15s 8s 13 18 mph 1021.6mb 60f 61f
10:50 4.5ft 15s 8s 13 18 mph 1022mb 60f 60f
9:50 5ft 15s 10s 11 13 mph 1022.2mb 60f 61f
8:50 4.5ft 15s 10s 11 13 mph 1022mb 60f 61f
7:50 4ft 13s 9s 11 13 mph 1021.9mb 61f 61f
6:50 4ft 15s 9s 11 13 mph 1022mb 62f 61f
5:50 4.5ft 15s 10s 9 11 mph 1022mb 62f 62f
4:50 4.5ft 15s 9s 7
mph
1022.2mb 62f 63f
3:50 4.5ft 15s 9s 4 7 mph 1022.3mb 62f 62f
2:50 4.5ft 16s 8s 4 7 mph 1022.7mb 63f 62f
1:50 5ft 15s 9s 4 7 mph 1022.9mb 62f 61f
12:50 5.5ft 15s 9s 4 7 mph 1023.6mb 62f 60f
11:50 5ft 16s 8s 4
mph
1024.4mb 61f 60f
10:50 4.5ft 15s 9s 4
mph
1024.7mb 60f 60f
9:50 4.5ft 15s 9s 4
mph
1024.6mb 60f 60f
8:50 5ft 15s 9s 7
mph
1024.3mb 59f 61f
7:50 5ft 15s 9s 9 11 mph 1023.7mb 59f 61f
6:50 5ft 16s 10s 7 9 mph 1022.7mb 59f 59f
5:50 4.5ft 16s 8s 7
mph
1022.2mb 60f 59f
4:50 5ft 15s 10s 7 9 mph 1021.4mb 60f 59f
3:50 5ft 16s 10s 7 9 mph 1020.9mb 60f 60f
2:50 5ft 16s 9s 7 9 mph 1020.9mb 60f 59f
1:50 5ft 15s 9s 4 7 mph 1021mb 60f 59f
12:50 5ft 15s 9s 4 7 mph 1021mb 60f 59f
mié 03/04 11:50 5ft 16s 9s 7 9 mph 1021.1mb 60f 59f
10:50 5.5ft 16s 9s 7 9 mph 1021.1mb 60f 59f
9:50 5ft 16s 9s 9
mph
1020.9mb 60f 59f
8:50 5ft 16s 8s 7 9 mph 1020.5mb 61f 59f
7:50 5ft 16s 8s 7 9 mph 1020.2mb 61f 60f
6:50 5ft 16s 8s 7
mph
1019.5mb 61f 60f
5:50 5.5ft 16s 8s 4 7 mph 1019mb 61f 61f
4:50 6ft 16s 8s 4 7 mph 1018.7mb 61f 61f
3:50 5ft 16s 7s 4 7 mph 1018.5mb 62f 60f
2:50 6ft 16s 8s 2 4 mph 1018.7mb 62f 60f
1:50 5.5ft 10s 7s 2 4 mph 1018.6mb 61f 60f
12:50 7ft 16s 9s 4 7 mph 1018.8mb 61f 59f
11:50 6ft 16s 8s 4 7 mph 1018.9mb 60f 59f
10:50 6ft 16s 7s 4 7 mph 1018.7mb 60f 59f
9:50 6.5ft 17s 7s 2 4 mph 1018.4mb 59f 59f
8:50 6.5ft 16s 7s 2 4 mph 1017.9mb 59f 59f
7:50 7ft 16s 8s 4 7 mph 1016.8mb 59f 58f
6:50 6.5ft 11s 7s 9 11 mph 1016mb 59f 58f
5:50 6.5ft 17s 7s 11 16 mph 1015.1mb 59f 58f
4:50 7ft 11s 7s 16 18 mph 1014.5mb 59f 57f
3:50 7.5ft 17s 7s 16 20 mph 1014.2mb 59f 57f
2:50 7ft 17s 6s 18 20 mph 1014.2mb 59f 57f
1:50 7ft 17s 6s 20 22 mph 1014.5mb 59f 58f
12:50 7ft 6s 6s 22 25 mph 1014.3mb 59f 58f
mar 03/03 11:50 7ft 17s 6s 20 25 mph 1014.3mb 59f 58f
10:50 7.5ft 17s 6s 20 22 mph 1014.3mb 59f 58f
9:50 9ft 17s 6s 22 27 mph 1013.7mb 59f 58f
8:50 8ft 10s 6s 22 27 mph 1013.3mb 59f 58f
7:50 7.5ft 10s 6s 25 34 mph 1012.9mb 59f 58f
6:50 7ft 10s 6s 22 25 mph 1012.6mb 60f 58f
5:50 7ft 10s 6s 22 25 mph 1012.2mb 60f 58f
4:50 7.5ft 17s 7s 20 25 mph 1012.3mb 60f 58f
3:50 6.5ft 11s 7s 16 18 mph 1012.8mb 60f 58f
2:50 8ft 10s 8s 16 20 mph 1013.2mb 60f 58f
1:50 7.5ft 11s 8s 16 20 mph 1013.6mb 60f 57f
12:50 6ft 11s 8s 16 18 mph 1014.4mb 60f 57f
11:50 5.5ft 11s 7s 11 13 mph 1014.8mb 60f 57f
10:50 6ft 10s 8s 9 11 mph 1015.1mb 59f 57f
9:50 5.5ft 10s 7s 7
mph
1015mb 59f 57f
8:50 5.5ft 9s 7s 9 11 mph 1014.8mb 59f 57f
7:50 5ft 10s 7s 9
mph
1013.8mb 59f 57f
6:50 5ft 10s 7s 4 9 mph 1013.3mb 59f 56f
5:50 5.5ft 10s 7s 9 11 mph 1012.8mb 59f 55f
4:50 5ft 10s 8s 16 20 mph 1012.8mb 59f 55f
3:50 6ft 10s 8s 7 11 mph 1012.9mb 59f 56f
2:50 5ft 11s 8s 4
mph
1013mb 59f 56f
1:50 4.5ft 10s 7s 2
mph
1013.4mb 59f 55f
12:50 5ft 10s 7s 7 9 mph 1013.8mb 59f 53f
lun 03/02 11:50 5ft 10s 7s 7 9 mph 1013.3mb 59f 56f
10:50 5ft 10s 7s 9 13 mph 1013.2mb 59f 55f
9:50 5ft 10s 8s 7 13 mph 1013.1mb 59f 58f
8:50 5ft 10s 8s 7 9 mph 1012.9mb 59f 58f
7:50 4.5ft 10s 8s 9 11 mph 1012.3mb 59f 57f
6:50 5ft 10s 8s 9 11 mph 1011.9mb 59f 56f
5:50 5ft 10s 8s 4
mph
1012mb 60f 56f